Terminal Aerodrome Forecast
Issued by NWS Mobile, AL

Home | Current Version | Previous Version | Text Only | Print | Product List | Glossary On
Versions: 1 2 3 4 5 6 7 8 9 10 11 12 13 14 15 16 17 18 19 20 21 22 23 24 25 26 27 28 29 30 31 32 33 34 35 36 37 38 39 40 41 42 43 44 45 46 47 48 49
000
FTUS44 KMOB 180337 AAB
TAFMOB
TAF AMD
KMOB 180337Z 1804/1824 18010KT 2SM BR OVC004
     FM180600 VRB03KT 1/2SM FG VV002
     FM181600 16004KT 2SM BR OVC007
     FM181800 16005KT P6SM OVC015=

USA.gov is the U.S. government's official web portal to all federal, state and local government web resources and services.